Decoded Metar for KMVL (MORRISVILLE in VT, USA) (IATA:MVL) | Meteo·Mobile Aviation Weather
aviador You're here:

KMVL Decoded Metar

MORRISVILLE in VT, USA
Report Time2019-02-20 00:54:00
UTC Time2019-02-20 01:14:49
Flight Rules vfr VFR
Wind340° at 05 kt
W.Decomp.*RWY 01: 4.9 kt HW 1.2 kt LCW
W.Rank340° ranks 3
Current wind is below 340° avg. (7.0)
Visibility9999 m
Phenomena:N/A
Clouds:N/A
Expected CloudBase > 3,200 ft AGL from Temp-Dew spread
CeilingNone
Temp-13°C (ISA -26)
Dew Point-21°C (51% RH)
AAT-18.4°C
QNH1034 hPa
Density Alt-3,261 ft
Elevation768 ft
Report Wrong Elevation
Raw Report
KMVL 200054Z AUTO 34005KT 10SM CLR M13/M21 A3053 RMK AO2 SLP357
T11331206=

Extra information for KMVL:More info

Metar Taf Metar & Taf Last 4 Metars F.Rules Stats Wind Profile Meteogram Temp Stats Airport Information Weather charts Add Link Nearby VenuesMetar ALERT Operation Metar Decoded Social comments

AIRNAV info for KMVL